createdAt,value
2017-12-05T00:00:17.946Z,59.49
2017-12-05T00:00:49.585Z,59.46
2017-12-05T00:01:21.246Z,59.58
2017-12-05T00:01:53.179Z,59.55
2017-12-05T00:02:24.818Z,59.54
2017-12-05T00:02:56.499Z,59.77
2017-12-05T00:03:28.118Z,59.77
2017-12-05T00:03:59.786Z,59.58
2017-12-05T00:04:31.415Z,59.70
2017-12-05T00:05:03.042Z,59.82
2017-12-05T00:05:34.674Z,59.88
2017-12-05T00:06:06.310Z,59.88
2017-12-05T00:06:37.953Z,59.72
2017-12-05T00:07:09.595Z,59.83
2017-12-05T00:07:41.223Z,60.08
2017-12-05T00:08:12.890Z,59.99
2017-12-05T00:08:44.530Z,59.97
2017-12-05T00:09:16.206Z,60.03
2017-12-05T00:09:47.833Z,60.05
2017-12-05T00:10:19.459Z,60.14
2017-12-05T00:10:51.325Z,60.07
2017-12-05T00:11:22.949Z,60.04
2017-12-05T00:11:54.683Z,60.13
2017-12-05T00:12:26.321Z,60.11
2017-12-05T00:12:57.983Z,60.22
2017-12-05T00:13:29.842Z,60.28
2017-12-05T00:14:01.466Z,60.35
2017-12-05T00:14:33.446Z,60.49
2017-12-05T00:15:05.067Z,60.41
2017-12-05T00:15:36.694Z,60.28
2017-12-05T00:16:08.361Z,60.51
2017-12-05T00:16:39.987Z,60.72
2017-12-05T00:17:11.658Z,60.47
2017-12-05T00:17:43.281Z,60.35
2017-12-05T00:18:14.922Z,60.58
2017-12-05T00:18:46.545Z,61.04
2017-12-05T00:19:18.284Z,61.56
2017-12-05T00:19:49.962Z,60.65
2017-12-05T00:20:21.582Z,60.64
2017-12-05T00:20:53.516Z,60.60
2017-12-05T00:21:25.160Z,60.85
2017-12-05T00:21:56.800Z,61.07
2017-12-05T00:22:28.440Z,60.55
2017-12-05T00:23:00.085Z,60.66
2017-12-05T00:23:31.725Z,60.60
2017-12-05T00:24:03.364Z,60.83
2017-12-05T00:24:35.010Z,60.76
2017-12-05T00:25:06.674Z,60.82
2017-12-05T00:25:38.304Z,60.81
2017-12-05T00:26:10.129Z,61.09
2017-12-05T00:26:41.885Z,61.27
2017-12-05T00:27:13.526Z,61.29
2017-12-05T00:27:45.750Z,61.35
2017-12-05T00:28:17.383Z,61.27
2017-12-05T00:28:49.067Z,61.20
2017-12-05T00:29:20.694Z,61.50
2017-12-05T00:29:52.324Z,61.35
2017-12-05T00:30:23.946Z,61.35
2017-12-05T00:30:55.570Z,61.45
2017-12-05T00:31:27.199Z,61.39
2017-12-05T00:31:58.822Z,61.53
2017-12-05T00:32:30.559Z,61.21
2017-12-05T00:33:02.199Z,61.43
2017-12-05T00:33:33.846Z,61.38
2017-12-05T00:34:05.509Z,61.61
2017-12-05T00:34:37.131Z,61.59
2017-12-05T00:35:08.766Z,61.59
2017-12-05T00:35:40.408Z,61.41
2017-12-05T00:36:12.051Z,61.58
2017-12-05T00:36:43.692Z,61.68
2017-12-05T00:37:15.334Z,61.46
2017-12-05T00:37:47.896Z,61.56
2017-12-05T00:38:20.094Z,61.73
2017-12-05T00:38:51.796Z,61.58
2017-12-05T00:39:23.445Z,61.80
2017-12-05T00:39:55.082Z,61.69
2017-12-05T00:40:26.721Z,61.73
2017-12-05T00:40:58.366Z,61.73
2017-12-05T00:41:30.005Z,61.88
2017-12-05T00:42:01.650Z,61.60
2017-12-05T00:42:33.288Z,61.83
2017-12-05T00:43:04.934Z,61.79
2017-12-05T00:43:36.576Z,61.81
2017-12-05T00:44:08.250Z,61.82
2017-12-05T00:44:39.883Z,61.83
2017-12-05T00:45:11.515Z,61.80
2017-12-05T00:45:43.374Z,61.76
2017-12-05T00:46:15.003Z,61.79
2017-12-05T00:46:46.734Z,61.88
2017-12-05T00:47:18.376Z,61.70
2017-12-05T00:47:50.018Z,61.79
2017-12-05T00:48:21.652Z,61.85
2017-12-05T00:48:53.302Z,61.99
2017-12-05T00:49:24.975Z,61.81
2017-12-05T00:49:56.636Z,61.74
2017-12-05T00:50:28.259Z,61.79
2017-12-05T00:50:59.886Z,61.66
2017-12-05T00:51:31.820Z,61.63
2017-12-05T00:52:03.458Z,61.47
2017-12-05T00:52:35.102Z,61.58
2017-12-05T00:53:06.740Z,61.52
2017-12-05T00:53:38.385Z,61.46
2017-12-05T00:54:10.026Z,61.35
2017-12-05T00:54:41.703Z,61.31
2017-12-05T00:55:13.326Z,61.28
2017-12-05T00:55:44.958Z,61.10
2017-12-05T00:56:16.597Z,61.12
2017-12-05T00:56:48.234Z,61.12
2017-12-05T00:57:19.876Z,61.09
2017-12-05T00:57:51.503Z,61.12
2017-12-05T00:58:23.126Z,61.02
2017-12-05T00:58:54.754Z,61.05
2017-12-05T00:59:26.386Z,61.08
2017-12-05T00:59:58.055Z,60.87
2017-12-05T01:00:29.687Z,60.92
2017-12-05T01:01:01.310Z,60.89
2017-12-05T01:01:32.939Z,60.83
2017-12-05T01:02:04.566Z,60.96
2017-12-05T01:02:36.298Z,60.78
2017-12-05T01:03:07.944Z,60.70
2017-12-05T01:03:39.627Z,60.63
2017-12-05T01:04:11.254Z,60.65
2017-12-05T01:04:42.878Z,60.66
2017-12-05T01:05:15.591Z,60.59
2017-12-05T01:05:47.618Z,60.63
2017-12-05T01:06:19.241Z,60.61
2017-12-05T01:06:50.969Z,60.65
2017-12-05T01:07:22.609Z,60.65
2017-12-05T01:07:56.641Z,60.60
2017-12-05T01:08:28.272Z,60.48
2017-12-05T01:08:59.947Z,60.46
2017-12-05T01:09:31.569Z,60.33
2017-12-05T01:10:03.200Z,60.36
2017-12-05T01:10:34.822Z,60.38
2017-12-05T01:11:06.563Z,60.51
2017-12-05T01:11:38.202Z,60.44
2017-12-05T01:12:09.846Z,60.38
2017-12-05T01:12:41.485Z,60.47
2017-12-05T01:13:13.127Z,60.60
2017-12-05T01:13:44.768Z,60.42
2017-12-05T01:14:16.441Z,60.61
2017-12-05T01:14:48.365Z,60.67
2017-12-05T01:15:20.006Z,60.49
2017-12-05T01:15:51.647Z,60.47
2017-12-05T01:16:23.286Z,60.61
2017-12-05T01:16:54.928Z,60.76
2017-12-05T01:17:26.569Z,60.86
2017-12-05T01:17:59.443Z,60.79
2017-12-05T01:18:31.081Z,60.80
2017-12-05T01:19:02.724Z,60.81
2017-12-05T01:19:34.572Z,61.08
2017-12-05T01:20:06.239Z,60.96
2017-12-05T01:20:37.871Z,61.08
2017-12-05T01:21:09.603Z,60.99
2017-12-05T01:21:41.240Z,61.11
2017-12-05T01:22:12.882Z,61.32
2017-12-05T01:22:44.524Z,61.16
2017-12-05T01:23:16.169Z,61.16
2017-12-05T01:23:47.834Z,61.19
2017-12-05T01:24:19.466Z,61.29
2017-12-05T01:24:51.402Z,61.12
2017-12-05T01:25:23.041Z,61.40
2017-12-05T01:25:54.683Z,61.21
2017-12-05T01:26:26.324Z,61.25
2017-12-05T01:26:57.986Z,61.22
2017-12-05T01:27:29.622Z,61.29
2017-12-05T01:28:01.263Z,61.24
2017-12-05T01:28:33.203Z,61.33
2017-12-05T01:29:04.858Z,61.32
2017-12-05T01:29:36.522Z,61.36
2017-12-05T01:30:08.142Z,61.39
2017-12-05T01:30:40.014Z,61.35
2017-12-05T01:31:11.634Z,61.41
2017-12-05T01:31:43.362Z,61.42
2017-12-05T01:32:15.003Z,61.33
2017-12-05T01:32:46.641Z,61.29
2017-12-05T01:33:18.271Z,61.29
2017-12-05T01:33:49.898Z,61.42
2017-12-05T01:34:21.522Z,61.35
2017-12-05T01:34:53.403Z,61.37
2017-12-05T01:35:25.876Z,61.30
2017-12-05T01:35:57.654Z,61.34
2017-12-05T01:36:29.283Z,61.34
2017-12-05T01:37:00.914Z,61.47
2017-12-05T01:37:32.651Z,61.68
2017-12-05T01:38:04.294Z,61.57
2017-12-05T01:38:35.932Z,61.45
2017-12-05T01:39:07.573Z,61.41
2017-12-05T01:39:39.216Z,61.55
2017-12-05T01:40:10.903Z,61.58
2017-12-05T01:40:42.532Z,61.71
2017-12-05T01:41:14.203Z,61.88
2017-12-05T01:41:45.818Z,61.79
2017-12-05T01:42:17.442Z,61.61
2017-12-05T01:42:49.074Z,61.68
2017-12-05T01:43:21.021Z,61.65
2017-12-05T01:43:52.658Z,61.51
2017-12-05T01:44:24.303Z,61.50
2017-12-05T01:44:55.942Z,61.66
2017-12-05T01:45:27.799Z,61.68
2017-12-05T01:45:59.457Z,61.76
2017-12-05T01:46:31.082Z,61.71
2017-12-05T01:47:02.820Z,61.69
2017-12-05T01:47:34.458Z,61.71
2017-12-05T01:48:07.298Z,61.67
2017-12-05T01:48:39.282Z,61.61
2017-12-05T01:49:10.923Z,61.69
2017-12-05T01:49:42.565Z,61.64
2017-12-05T01:50:14.204Z,61.73
2017-12-05T01:50:45.846Z,61.74
2017-12-05T01:51:17.488Z,61.82
2017-12-05T01:51:49.129Z,61.71
2017-12-05T01:52:20.772Z,61.76
2017-12-05T01:52:52.723Z,61.74
2017-12-05T01:53:24.380Z,61.88
2017-12-05T01:53:56.314Z,61.70
2017-12-05T01:54:27.978Z,61.69
2017-12-05T01:54:59.906Z,61.67
2017-12-05T01:55:31.548Z,61.62
2017-12-05T01:56:03.211Z,61.70
2017-12-05T01:56:34.839Z,61.59
2017-12-05T01:57:06.473Z,61.62
2017-12-05T01:57:38.134Z,61.56
2017-12-05T01:58:09.798Z,61.71
2017-12-05T01:58:41.438Z,61.76
2017-12-05T01:59:13.349Z,61.80
2017-12-05T01:59:45.011Z,61.75
2017-12-05T02:00:16.645Z,61.56
2017-12-05T02:00:48.899Z,61.45
2017-12-05T02:01:20.521Z,61.51
2017-12-05T02:01:52.172Z,61.55
2017-12-05T02:02:23.813Z,61.56
2017-12-05T02:02:55.453Z,61.66
2017-12-05T02:03:28.325Z,61.59
2017-12-05T02:03:59.973Z,61.64
2017-12-05T02:04:31.626Z,61.57
2017-12-05T02:05:03.278Z,61.53
2017-12-05T02:05:34.906Z,61.46
2017-12-05T02:06:06.587Z,61.45
2017-12-05T02:06:38.218Z,61.50
2017-12-05T02:07:09.858Z,61.53
2017-12-05T02:07:41.482Z,61.46
2017-12-05T02:08:13.122Z,61.49
2017-12-05T02:08:45.053Z,61.50
2017-12-05T02:09:17.001Z,61.49
2017-12-05T02:09:48.643Z,61.37
2017-12-05T02:10:20.315Z,61.44
2017-12-05T02:10:51.963Z,61.43
2017-12-05T02:11:23.631Z,61.46
2017-12-05T02:11:55.258Z,61.53
2017-12-05T02:12:26.926Z,61.46
2017-12-05T02:12:58.550Z,61.48
2017-12-05T02:13:30.715Z,61.52
2017-12-05T02:14:02.391Z,61.48
2017-12-05T02:14:34.032Z,61.48
2017-12-05T02:15:05.677Z,61.44
2017-12-05T02:15:37.316Z,61.46
2017-12-05T02:16:09.269Z,61.39
2017-12-05T02:16:40.942Z,61.41
2017-12-05T02:17:12.570Z,61.35
2017-12-05T02:17:44.235Z,61.45
2017-12-05T02:18:15.861Z,61.27
2017-12-05T02:18:48.438Z,61.20
2017-12-05T02:19:20.060Z,61.31
2017-12-05T02:19:51.918Z,61.33
2017-12-05T02:20:23.542Z,61.46
2017-12-05T02:20:55.199Z,61.48
2017-12-05T02:21:26.834Z,61.47
2017-12-05T02:21:58.485Z,61.70
2017-12-05T02:22:30.159Z,61.57
2017-12-05T02:23:01.789Z,61.64
2017-12-05T02:23:33.417Z,61.72
2017-12-05T02:24:05.039Z,61.78
2017-12-05T02:24:36.768Z,61.76
2017-12-05T02:25:08.407Z,61.64
2017-12-05T02:25:40.049Z,61.59
2017-12-05T02:26:11.693Z,61.68
2017-12-05T02:26:43.375Z,61.68
2017-12-05T02:27:14.998Z,61.65
2017-12-05T02:27:46.622Z,61.64
2017-12-05T02:28:18.261Z,61.64
2017-12-05T02:28:49.909Z,61.66
2017-12-05T02:29:21.544Z,61.67
2017-12-05T02:29:53.184Z,61.99
2017-12-05T02:30:24.831Z,61.88
2017-12-05T02:30:56.470Z,61.86
2017-12-05T02:31:28.142Z,61.96
2017-12-05T02:31:59.762Z,61.99
2017-12-05T02:32:31.399Z,61.88
2017-12-05T02:33:03.039Z,61.85
2017-12-05T02:33:34.681Z,61.96
2017-12-05T02:34:06.319Z,62.10
2017-12-05T02:34:37.960Z,61.97
2017-12-05T02:35:09.602Z,62.01
2017-12-05T02:35:41.244Z,61.95
2017-12-05T02:36:12.886Z,62.10
2017-12-05T02:36:44.558Z,62.18
2017-12-05T02:37:16.178Z,61.92
2017-12-05T02:37:48.124Z,62.18
2017-12-05T02:38:19.767Z,62.04
2017-12-05T02:38:51.403Z,62.08
2017-12-05T02:39:23.046Z,61.93
2017-12-05T02:39:54.687Z,62.27
2017-12-05T02:40:26.331Z,62.12
2017-12-05T02:40:57.971Z,62.20
2017-12-05T02:41:29.615Z,62.50
2017-12-05T02:42:01.284Z,62.53
2017-12-05T02:42:32.906Z,62.56
2017-12-05T02:43:04.849Z,62.72
2017-12-05T02:43:36.487Z,62.56
2017-12-05T02:44:08.129Z,62.82
2017-12-05T02:44:39.771Z,62.53
2017-12-05T02:45:11.415Z,62.77
2017-12-05T02:45:43.056Z,62.60
2017-12-05T02:46:14.766Z,62.54
2017-12-05T02:46:46.403Z,62.70
2017-12-05T02:47:18.034Z,62.89
2017-12-05T02:47:49.666Z,62.66
2017-12-05T02:48:21.536Z,62.75
2017-12-05T02:48:53.235Z,62.75
2017-12-05T02:49:24.862Z,62.82
2017-12-05T02:49:56.500Z,62.68
2017-12-05T02:50:28.140Z,62.67
2017-12-05T02:50:59.782Z,62.83
2017-12-05T02:51:31.426Z,62.83
2017-12-05T02:52:03.066Z,62.76
2017-12-05T02:52:34.709Z,62.81
2017-12-05T02:53:06.349Z,62.78
2017-12-05T02:53:38.015Z,62.69
2017-12-05T02:54:09.642Z,62.87
2017-12-05T02:54:41.515Z,62.79
2017-12-05T02:55:13.146Z,62.75
2017-12-05T02:55:44.873Z,62.72
2017-12-05T02:56:16.735Z,62.69
2017-12-05T02:56:48.366Z,63.03
2017-12-05T02:57:20.112Z,62.97
2017-12-05T02:57:51.779Z,63.11
2017-12-05T02:58:23.414Z,63.07
2017-12-05T02:58:55.041Z,62.91
2017-12-05T02:59:26.675Z,62.93
2017-12-05T02:59:58.315Z,62.91
2017-12-05T03:00:29.950Z,62.95
2017-12-05T03:01:01.593Z,62.97
2017-12-05T03:01:33.234Z,63.14
2017-12-05T03:02:04.876Z,63.04
2017-12-05T03:02:36.521Z,62.98
2017-12-05T03:03:08.182Z,62.98
2017-12-05T03:03:39.810Z,62.86
2017-12-05T03:04:11.441Z,63.00
2017-12-05T03:04:43.085Z,63.07
2017-12-05T03:05:14.727Z,63.04
2017-12-05T03:05:46.369Z,63.19
2017-12-05T03:06:18.011Z,63.29
2017-12-05T03:06:49.678Z,63.05
2017-12-05T03:07:21.306Z,63.18
2017-12-05T03:07:52.966Z,63.23
2017-12-05T03:08:24.598Z,63.32
2017-12-05T03:08:56.474Z,63.27
2017-12-05T03:09:28.094Z,63.22
2017-12-05T03:09:59.717Z,63.33
2017-12-05T03:10:32.222Z,63.28
2017-12-05T03:11:03.851Z,63.53
2017-12-05T03:11:35.482Z,63.71
2017-12-05T03:12:07.143Z,63.43
2017-12-05T03:12:38.771Z,63.60
2017-12-05T03:13:10.407Z,63.57
2017-12-05T03:13:42.030Z,63.52
2017-12-05T03:14:13.872Z,63.50
2017-12-05T03:14:45.510Z,63.52
2017-12-05T03:15:17.155Z,63.59
2017-12-05T03:15:48.793Z,63.71
2017-12-05T03:16:20.418Z,63.60
2017-12-05T03:16:52.051Z,63.67
2017-12-05T03:17:23.898Z,63.62
2017-12-05T03:17:55.526Z,63.56
2017-12-05T03:18:27.146Z,63.42
2017-12-05T03:18:58.766Z,63.50
2017-12-05T03:19:30.595Z,63.56
2017-12-05T03:20:02.237Z,63.53
2017-12-05T03:20:33.885Z,63.52
2017-12-05T03:21:05.519Z,63.43
2017-12-05T03:21:37.165Z,63.32
2017-12-05T03:22:08.807Z,63.44
2017-12-05T03:22:40.483Z,63.47
2017-12-05T03:23:12.102Z,63.42
2017-12-05T03:23:44.040Z,63.33
2017-12-05T03:24:15.686Z,63.40
2017-12-05T03:24:47.311Z,63.29
2017-12-05T03:25:18.963Z,63.37
2017-12-05T03:25:50.605Z,63.24
2017-12-05T03:26:22.246Z,63.29
2017-12-05T03:26:53.888Z,63.21
2017-12-05T03:27:25.533Z,63.19
2017-12-05T03:27:57.199Z,63.20
2017-12-05T03:28:28.846Z,63.25
2017-12-05T03:29:00.467Z,63.07
2017-12-05T03:29:32.105Z,63.06
2017-12-05T03:30:03.741Z,63.13
2017-12-05T03:30:35.420Z,63.05
2017-12-05T03:31:07.052Z,63.10
2017-12-05T03:31:38.680Z,63.07
2017-12-05T03:32:10.302Z,63.14
2017-12-05T03:32:41.949Z,63.04
2017-12-05T03:33:13.592Z,63.03
2017-12-05T03:33:45.233Z,62.94
2017-12-05T03:34:16.878Z,62.91
2017-12-05T03:34:48.516Z,62.91
2017-12-05T03:35:20.161Z,62.99
2017-12-05T03:35:51.834Z,62.94
2017-12-05T03:36:23.458Z,62.97
2017-12-05T03:36:55.266Z,62.81
2017-12-05T03:37:26.890Z,62.34
2017-12-05T03:37:58.547Z,62.37
2017-12-05T03:38:30.174Z,62.47
2017-12-05T03:39:01.798Z,62.52
2017-12-05T03:39:33.427Z,62.30
2017-12-05T03:40:05.047Z,62.35
2017-12-05T03:40:36.710Z,62.23
2017-12-05T03:41:08.374Z,62.15
2017-12-05T03:41:39.994Z,62.12
2017-12-05T03:42:11.618Z,62.10
2017-12-05T03:42:43.450Z,62.04
2017-12-05T03:43:15.097Z,61.83
2017-12-05T03:43:46.995Z,61.75
2017-12-05T03:44:18.626Z,61.72
2017-12-05T03:44:50.255Z,61.69
2017-12-05T03:45:21.878Z,61.57
2017-12-05T03:45:53.541Z,61.43
2017-12-05T03:46:25.171Z,61.33
2017-12-05T03:46:56.897Z,61.11
2017-12-05T03:47:28.527Z,61.05
2017-12-05T03:48:00.182Z,60.94
2017-12-05T03:48:31.842Z,60.68
2017-12-05T03:49:04.495Z,60.55
2017-12-05T03:49:36.337Z,60.60
2017-12-05T03:50:07.988Z,60.76
2017-12-05T03:50:39.642Z,60.72
2017-12-05T03:51:11.290Z,60.69
2017-12-05T03:51:42.918Z,60.69
2017-12-05T03:52:14.854Z,60.60
2017-12-05T03:52:46.530Z,60.43
2017-12-05T03:53:18.151Z,60.76
2017-12-05T03:53:49.804Z,60.49
2017-12-05T03:54:21.647Z,60.22
2017-12-05T03:54:53.278Z,60.15
2017-12-05T03:55:25.012Z,59.80
2017-12-05T03:55:56.655Z,59.75
2017-12-05T03:56:28.293Z,59.76
2017-12-05T03:56:59.937Z,59.72
2017-12-05T03:57:31.581Z,59.51
2017-12-05T03:58:03.211Z,59.61
2017-12-05T03:58:34.862Z,59.63
2017-12-05T03:59:06.490Z,59.30
2017-12-05T03:59:38.153Z,59.45
2017-12-05T04:00:09.789Z,59.40
2017-12-05T04:00:41.431Z,59.37
2017-12-05T04:01:13.057Z,59.46
2017-12-05T04:01:45.142Z,59.63
2017-12-05T04:02:16.774Z,59.64
2017-12-05T04:02:48.613Z,59.71
2017-12-05T04:03:20.238Z,59.71
2017-12-05T04:03:51.870Z,59.72
2017-12-05T04:04:23.543Z,59.82
2017-12-05T04:04:55.225Z,59.83
2017-12-05T04:05:26.858Z,59.88
2017-12-05T04:05:58.487Z,59.87
2017-12-05T04:06:30.110Z,59.95
2017-12-05T04:07:01.806Z,59.97
2017-12-05T04:07:33.407Z,59.96
2017-12-05T04:08:05.038Z,59.97
2017-12-05T04:08:36.874Z,59.99
2017-12-05T04:09:08.623Z,59.95
2017-12-05T04:09:41.258Z,59.94
2017-12-05T04:10:13.136Z,59.92
2017-12-05T04:10:44.811Z,59.86
2017-12-05T04:11:16.434Z,59.91
2017-12-05T04:11:48.368Z,59.86
2017-12-05T04:12:20.010Z,59.89
2017-12-05T04:12:51.649Z,59.95
2017-12-05T04:13:23.291Z,59.90
2017-12-05T04:13:55.185Z,59.93
2017-12-05T04:14:26.819Z,59.92
2017-12-05T04:14:58.447Z,59.95
2017-12-05T04:15:30.070Z,60.02
2017-12-05T04:16:01.746Z,59.96
2017-12-05T04:16:33.366Z,60.00
2017-12-05T04:17:04.999Z,59.97
2017-12-05T04:17:36.736Z,59.96
2017-12-05T04:18:08.424Z,59.98
2017-12-05T04:18:40.036Z,59.97
2017-12-05T04:19:11.992Z,59.95
2017-12-05T04:19:43.623Z,59.90
2017-12-05T04:20:15.489Z,59.88
2017-12-05T04:20:47.120Z,59.89
2017-12-05T04:21:18.791Z,59.82
2017-12-05T04:21:50.426Z,59.81
2017-12-05T04:22:22.050Z,59.82
2017-12-05T04:22:53.679Z,59.85
2017-12-05T04:23:25.412Z,59.89
2017-12-05T04:23:57.050Z,59.84
2017-12-05T04:24:29.311Z,59.85
2017-12-05T04:25:00.958Z,59.85
2017-12-05T04:25:32.642Z,59.87
2017-12-05T04:26:04.270Z,59.91
2017-12-05T04:26:35.898Z,59.87
2017-12-05T04:27:07.522Z,59.98
2017-12-05T04:27:39.158Z,59.97
2017-12-05T04:28:10.803Z,59.98
2017-12-05T04:28:42.445Z,59.94
2017-12-05T04:29:14.084Z,59.96
2017-12-05T04:29:45.727Z,59.94
2017-12-05T04:30:17.371Z,59.98
2017-12-05T04:30:49.043Z,59.96
2017-12-05T04:31:20.670Z,59.93
2017-12-05T04:31:52.530Z,59.96
2017-12-05T04:32:24.150Z,59.98
2017-12-05T04:32:55.887Z,59.98
2017-12-05T04:33:27.526Z,59.97
2017-12-05T04:33:59.171Z,60.00
2017-12-05T04:34:30.810Z,60.01
2017-12-05T04:35:02.452Z,59.99
2017-12-05T04:35:34.126Z,59.97
2017-12-05T04:36:05.745Z,59.93
2017-12-05T04:36:37.380Z,59.92
2017-12-05T04:37:09.022Z,59.88
2017-12-05T04:37:40.666Z,59.89
2017-12-05T04:38:12.303Z,59.91
2017-12-05T04:38:43.947Z,59.93
2017-12-05T04:39:15.592Z,59.93
2017-12-05T04:39:47.229Z,59.95
2017-12-05T04:40:18.871Z,59.95
2017-12-05T04:40:50.533Z,59.94
2017-12-05T04:41:22.402Z,59.95
2017-12-05T04:41:54.034Z,59.99
2017-12-05T04:42:25.654Z,59.98
2017-12-05T04:42:57.391Z,59.95
2017-12-05T04:43:29.029Z,59.95
2017-12-05T04:44:00.672Z,59.92
2017-12-05T04:44:32.313Z,59.92
2017-12-05T04:45:03.933Z,59.89
2017-12-05T04:45:35.600Z,59.89
2017-12-05T04:46:07.240Z,59.86
2017-12-05T04:46:38.884Z,59.85
2017-12-05T04:47:10.514Z,59.81
2017-12-05T04:47:42.168Z,59.79
2017-12-05T04:48:13.847Z,59.83
2017-12-05T04:48:45.470Z,59.81
2017-12-05T04:49:17.328Z,59.81
2017-12-05T04:49:48.954Z,59.82
2017-12-05T04:50:20.685Z,59.82
2017-12-05T04:50:52.323Z,59.79
2017-12-05T04:51:23.968Z,59.80
2017-12-05T04:51:55.610Z,59.78
2017-12-05T04:52:27.249Z,59.73
2017-12-05T04:52:58.897Z,59.80
2017-12-05T04:53:30.567Z,59.82
2017-12-05T04:54:02.190Z,59.83
2017-12-05T04:54:34.013Z,59.74
2017-12-05T04:55:05.658Z,59.67
2017-12-05T04:55:37.411Z,59.66
2017-12-05T04:56:09.052Z,59.67
2017-12-05T04:56:40.694Z,59.64
2017-12-05T04:57:12.343Z,59.57
2017-12-05T04:57:43.978Z,59.53
2017-12-05T04:58:15.620Z,59.50
2017-12-05T04:58:47.259Z,59.47
2017-12-05T04:59:18.901Z,59.48
2017-12-05T04:59:50.586Z,59.46
2017-12-05T05:00:22.215Z,59.44
2017-12-05T05:00:53.846Z,59.45
2017-12-05T05:01:25.779Z,59.44
2017-12-05T05:01:57.425Z,59.36
2017-12-05T05:02:29.370Z,59.33
2017-12-05T05:03:01.016Z,59.21
2017-12-05T05:03:32.653Z,59.07
2017-12-05T05:04:04.314Z,58.93
2017-12-05T05:04:35.958Z,58.87
2017-12-05T05:05:07.614Z,58.80
2017-12-05T05:05:39.286Z,58.68
2017-12-05T05:06:10.950Z,58.47
2017-12-05T05:06:42.777Z,58.31
2017-12-05T05:07:14.403Z,58.22
2017-12-05T05:07:46.034Z,58.13
2017-12-05T05:08:17.663Z,58.03
2017-12-05T05:08:49.282Z,57.92
2017-12-05T05:09:20.930Z,57.84
2017-12-05T05:09:52.850Z,57.77
2017-12-05T05:10:24.576Z,57.70
2017-12-05T05:10:56.562Z,57.69
2017-12-05T05:11:28.214Z,57.73
2017-12-05T05:11:59.854Z,57.71
2017-12-05T05:12:31.487Z,57.71
2017-12-05T05:13:03.243Z,57.68
2017-12-05T05:13:35.080Z,57.58
2017-12-05T05:14:06.721Z,57.53
2017-12-05T05:14:38.361Z,57.54
2017-12-05T05:15:10.001Z,57.54
2017-12-05T05:15:41.646Z,57.50
2017-12-05T05:16:13.306Z,57.49
2017-12-05T05:16:44.950Z,57.49
2017-12-05T05:17:16.602Z,57.44
2017-12-05T05:17:48.522Z,57.33
2017-12-05T05:18:20.160Z,57.43
2017-12-05T05:18:51.826Z,57.44
2017-12-05T05:19:23.469Z,57.39
2017-12-05T05:19:55.119Z,57.42
2017-12-05T05:20:26.747Z,57.36
2017-12-05T05:20:58.586Z,57.36
2017-12-05T05:21:30.882Z,57.24
2017-12-05T05:22:02.584Z,57.28
2017-12-05T05:22:34.240Z,57.36
2017-12-05T05:23:05.907Z,57.34
2017-12-05T05:23:37.566Z,57.29
2017-12-05T05:24:09.218Z,57.24
2017-12-05T05:24:40.846Z,57.18
2017-12-05T05:25:12.474Z,57.11
2017-12-05T05:25:44.142Z,57.10
2017-12-05T05:26:15.970Z,57.19
2017-12-05T05:26:48.158Z,57.19
2017-12-05T05:27:19.869Z,57.20
2017-12-05T05:27:51.561Z,57.21
2017-12-05T05:28:23.210Z,57.27
2017-12-05T05:28:54.863Z,57.27
2017-12-05T05:29:26.503Z,57.17
2017-12-05T05:29:58.155Z,57.21
2017-12-05T05:30:29.801Z,57.17
2017-12-05T05:31:01.454Z,57.20
2017-12-05T05:31:33.082Z,57.24
2017-12-05T05:32:04.706Z,57.21
2017-12-05T05:32:36.550Z,57.16
2017-12-05T05:33:08.243Z,57.14
2017-12-05T05:33:39.929Z,57.14
2017-12-05T05:34:11.570Z,57.17
2017-12-05T05:34:43.211Z,57.22
2017-12-05T05:35:14.858Z,57.11
2017-12-05T05:35:46.493Z,57.14
2017-12-05T05:36:18.138Z,57.17
2017-12-05T05:36:50.039Z,57.21
2017-12-05T05:37:21.728Z,57.41
2017-12-05T05:37:53.367Z,57.50
2017-12-05T05:38:25.009Z,57.64
2017-12-05T05:38:56.693Z,57.80
2017-12-05T05:39:28.322Z,57.81
2017-12-05T05:39:59.956Z,57.92
2017-12-05T05:40:31.606Z,58.04
2017-12-05T05:41:03.242Z,57.99
2017-12-05T05:41:34.880Z,58.03
2017-12-05T05:42:06.510Z,58.07
2017-12-05T05:42:38.148Z,58.04
2017-12-05T05:43:09.799Z,58.10
2017-12-05T05:43:41.457Z,58.06
2017-12-05T05:44:13.127Z,58.08
2017-12-05T05:44:44.750Z,58.14
2017-12-05T05:45:16.379Z,58.17
2017-12-05T05:45:48.031Z,58.13
2017-12-05T05:46:19.670Z,58.25
2017-12-05T05:46:51.293Z,58.32
2017-12-05T05:47:22.926Z,58.34
2017-12-05T05:47:54.621Z,58.40
2017-12-05T05:48:26.516Z,58.46
2017-12-05T05:48:58.162Z,58.50
2017-12-05T05:49:29.823Z,58.48
2017-12-05T05:50:01.503Z,58.48
2017-12-05T05:50:33.386Z,58.46
2017-12-05T05:51:05.032Z,58.50
2017-12-05T05:51:36.982Z,58.55
2017-12-05T05:52:08.621Z,58.59
2017-12-05T05:52:40.262Z,58.61
2017-12-05T05:53:11.904Z,58.63
2017-12-05T05:53:43.550Z,58.60
2017-12-05T05:54:15.190Z,58.64
2017-12-05T05:54:46.833Z,58.66
2017-12-05T05:55:18.558Z,58.66
2017-12-05T05:55:50.182Z,58.64
2017-12-05T05:56:21.811Z,58.65
2017-12-05T05:56:53.442Z,58.64
2017-12-05T05:57:25.062Z,58.64
2017-12-05T05:57:56.690Z,58.63
2017-12-05T05:58:28.323Z,58.67
2017-12-05T05:58:59.966Z,58.66
2017-12-05T05:59:31.607Z,58.64
2017-12-05T06:00:03.251Z,58.58
2017-12-05T06:00:34.891Z,58.59
2017-12-05T06:01:06.533Z,58.63
2017-12-05T06:01:38.177Z,58.61
2017-12-05T06:02:09.816Z,58.59
2017-12-05T06:02:41.441Z,58.57
2017-12-05T06:03:13.995Z,58.56
2017-12-05T06:03:45.625Z,58.54
2017-12-05T06:04:17.255Z,58.49
2017-12-05T06:04:48.878Z,58.54
2017-12-05T06:05:20.502Z,58.58
2017-12-05T06:05:52.170Z,58.58
2017-12-05T06:06:23.798Z,58.50
2017-12-05T06:06:55.422Z,58.52
2017-12-05T06:07:27.042Z,58.46
2017-12-05T06:07:58.803Z,58.48
2017-12-05T06:08:30.444Z,58.46
2017-12-05T06:09:02.123Z,58.53
2017-12-05T06:09:33.754Z,58.51
2017-12-05T06:10:05.382Z,58.50
2017-12-05T06:10:37.009Z,58.49
2017-12-05T06:11:08.653Z,58.46
2017-12-05T06:11:40.295Z,58.47
2017-12-05T06:12:11.935Z,58.50
2017-12-05T06:12:43.578Z,58.49
2017-12-05T06:13:15.217Z,58.46
2017-12-05T06:13:46.863Z,58.53
2017-12-05T06:14:18.567Z,58.54
2017-12-05T06:14:50.190Z,58.53
2017-12-05T06:15:21.815Z,58.51
2017-12-05T06:15:53.433Z,58.56
2017-12-05T06:16:25.069Z,58.58
2017-12-05T06:16:56.711Z,58.47
2017-12-05T06:17:28.353Z,58.47
2017-12-05T06:17:59.995Z,58.41
2017-12-05T06:18:31.663Z,58.36
2017-12-05T06:19:03.290Z,58.39
2017-12-05T06:19:34.959Z,58.34
2017-12-05T06:20:06.582Z,58.40
2017-12-05T06:20:38.218Z,58.41
2017-12-05T06:21:10.082Z,58.41
2017-12-05T06:21:41.711Z,58.40
2017-12-05T06:22:13.443Z,58.36
2017-12-05T06:22:45.083Z,58.31
2017-12-05T06:23:16.722Z,58.30
2017-12-05T06:23:48.363Z,58.24
2017-12-05T06:24:20.008Z,58.23
2017-12-05T06:24:51.678Z,58.23
2017-12-05T06:25:23.298Z,58.28
2017-12-05T06:25:54.932Z,58.24
2017-12-05T06:26:26.573Z,58.29
2017-12-05T06:26:58.217Z,58.22
2017-12-05T06:27:29.856Z,58.23
2017-12-05T06:28:01.501Z,58.22
2017-12-05T06:28:33.144Z,58.25
2017-12-05T06:29:04.783Z,58.22
2017-12-05T06:29:36.427Z,58.24
2017-12-05T06:30:08.069Z,58.11
2017-12-05T06:30:39.931Z,58.05
2017-12-05T06:31:11.570Z,57.98
2017-12-05T06:31:43.675Z,57.98
2017-12-05T06:32:15.303Z,57.97
2017-12-05T06:32:46.934Z,57.92
2017-12-05T06:33:18.562Z,57.79
2017-12-05T06:33:50.182Z,57.83
2017-12-05T06:34:21.815Z,57.74
2017-12-05T06:34:53.764Z,57.54
2017-12-05T06:35:25.453Z,57.40
2017-12-05T06:35:57.085Z,57.29
2017-12-05T06:36:28.710Z,57.15
2017-12-05T06:37:00.643Z,57.02
2017-12-05T06:37:32.287Z,56.89
2017-12-05T06:38:03.946Z,56.78
2017-12-05T06:38:35.574Z,56.70
2017-12-05T06:39:07.207Z,56.62
2017-12-05T06:39:38.852Z,56.65
2017-12-05T06:40:10.492Z,56.65
2017-12-05T06:40:42.154Z,56.74
2017-12-05T06:41:13.786Z,56.66
2017-12-05T06:41:45.874Z,56.58
2017-12-05T06:42:17.499Z,56.49
2017-12-05T06:42:49.122Z,56.42
2017-12-05T06:43:20.790Z,56.40
2017-12-05T06:43:52.722Z,56.50
2017-12-05T06:45:13.067Z,56.54
2017-12-05T06:45:44.702Z,56.49
2017-12-05T06:46:16.327Z,56.53
2017-12-05T06:46:47.951Z,56.55
2017-12-05T06:47:19.590Z,56.40
2017-12-05T06:47:51.321Z,56.47
2017-12-05T06:48:23.171Z,56.35
2017-12-05T06:48:54.799Z,56.32